Branyan, Mississippi
Current Conditions -  °F | °C
As of 9:53 PM on Wednesday 26 Nov 2014 (Local Time) from KTUP Reporting Station
Broken Clouds Broken Clouds  
Wind Chill: 44°   Ceiling: 7000
Heat Index: 44°   Visibility: 10mi
Dew Point: 33°   Wind: 3mph
Humidity: 65%   Direction: 310°NW
Pressure: 30.17"   Gusts: NA
Location:  34.4333°N, 88.8629°W
Report Text: KTUP 270353Z 31003KT 10SM BKN070 07/01 A3017 RMK AO2 SLP217 T00670006 $
Loading
Personal Weather Stations






























Interactive Weather Map New forecast layout! Learn more

10-Day Weather Forecast

Advertisements
Track Severe Weather on mobile